OSDI/DAM METAR and TAF weather

Enter ICAO airport designator
Station Type Date Time Source
OSDI METAR 2021/03/05 06:00 UTC NOAA

OSDI 050600Z 23010KT 8000 08/07 Q1022


Station Type Date Time Source
OSDI Decoded METAR 2021/03/05 06:00 UTC NOAA

Damascus Int. Airport, Syria (OSDI) 33-25N 036-31E 609M
Mar 05, 2021 - 01:00 AM EST / 2021.03.05 0600 UTC
Wind: from the SW (230 degrees) at 12 MPH (10 KT):0
Visibility: 4 mile(s):0
Temperature: 46 F (8 C)
Dew Point: 44 F (7 C)
Relative Humidity: 93%
Pressure (altimeter): 30.18 in. Hg (1022 hPa)
ob: OSDI 050600Z 23010KT 8000 08/07 Q1022
cycle: 6

Station Type Date Time Source
OSDI TAF 2021/03/05 06:54 UTC NOAA

TAF TAF OSDI 0506/0612 20015KT 9999 FEW030 SCT100

Example: see airport list